LQSA/SJJ METAR and TAF weather

Enter ICAO airport designator
Station Type Date Time Source
LQSA METAR 2022/06/30 00:00 UTC NOAA

LQSA 300000Z 13003KT 100V210 CAVOK 19/14 Q1013


Station Type Date Time Source
LQSA Decoded METAR 2022/06/30 00:00 UTC NOAA

Sarajevo, Bosnia and Herzegovina (LQSA) 43-49N 018-20E 510M
Jun 29, 2022 - 08:00 PM EDT / 2022.06.30 0000 UTC
Wind: from the SE (130 degrees) at 3 MPH (3 KT) (direction variable):0
Visibility: greater than 7 mile(s):0
Temperature: 66 F (19 C)
Dew Point: 57 F (14 C)
Relative Humidity: 72%
Pressure (altimeter): 29.91 in. Hg (1013 hPa)
ob: LQSA 300000Z 13003KT 100V210 CAVOK 19/14 Q1013
cycle: 0

Station Type Date Time Source
LQSA TAF 2022/06/29 18:08 UTC NOAA

TAF LQSA 291700Z 2918/3018 VRB02KT CAVOK TX34/3011Z TN19/3003Z PROB30
TEMPO 3012/3018 VRB12KT 5000 TSRA FEW033CB SCT050

Example: see airport list